Duke — WDG9333 — position and weather

sailwx.info

Track history (hours):
 
Tides and Currents Weather Stations Pressure Air Temp Water Temp Dewpoint Dewpoint Depression Visibility Wind Speed Wind Dir Waves Ship Positions

Duke

Owner: Harley Marine Services, Inc, Seattle, WA. More information available from US FCC via Universal Licensing System and Coast Guard Vessel Documentation Center.

Last reported at 2018-Jun-18 22:30 UTC. Time now 2018-Jun-18 22:39 UTC.
Position N 30°08' W 093°19'.

Length 26 m; draft 2.6 m.

Type: Ship (hazmat cat A). MMSI: 367586750.

Date/timePositionNaut miles runAvg speedWind from/ knotsBaromVisibWave heightAir tempDewpointWater temp
2018-Jun-18 22:30N 30°08' W 093°19'0 0.0
2018-Jun-18 22:00N 30°08' W 093°19'0 0.0
2018-Jun-18 21:30N 30°08' W 093°19'0 0.0
2018-Jun-18 21:00N 30°08' W 093°19'0 0.0
2018-Jun-18 20:29N 30°08' W 093°19'0 0.0
2018-Jun-18 19:59N 30°08' W 093°19'0 0.0
2018-Jun-18 19:30N 30°08' W 093°19'0 0.0
2018-Jun-18 19:00N 30°08' W 093°19'0 0.0
2018-Jun-18 18:30N 30°08' W 093°19'0 0.0
2018-Jun-18 18:00N 30°08' W 093°19'0 0.0
2018-Jun-18 17:30N 30°08' W 093°19'0 0.0
2018-Jun-18 17:00N 30°08' W 093°19'0 0.0
2018-Jun-18 16:29N 30°08' W 093°19'0 0.0
2018-Jun-18 16:00N 30°08' W 093°19'0 0.0
2018-Jun-18 15:29N 30°08' W 093°19'0 0.0
2018-Jun-18 15:00N 30°08' W 093°19'0 0.0
2018-Jun-18 14:30N 30°08' W 093°19'0 0.0
2018-Jun-18 14:00N 30°08' W 093°19'0 0.0
2018-Jun-18 13:30N 30°08' W 093°19'0 0.0
2018-Jun-18 13:00N 30°08' W 093°19'0 0.0
2018-Jun-18 12:30N 30°08' W 093°19'0 0.0
2018-Jun-18 12:00N 30°08' W 093°19'0 0.0
2018-Jun-18 11:30N 30°08' W 093°19'0 0.0
2018-Jun-18 11:00N 30°08' W 093°19'0 0.0
2018-Jun-18 10:29N 30°08' W 093°19'0 0.0
2018-Jun-18 10:00N 30°08' W 093°19'0 0.0
2018-Jun-18 09:29N 30°08' W 093°19'0 0.0
2018-Jun-18 08:57N 30°08' W 093°19'0 0.0
2018-Jun-18 08:29N 30°08' W 093°19'0 0.0
2018-Jun-18 08:00N 30°08' W 093°19'0 0.0
2018-Jun-18 07:30N 30°08' W 093°19'1 1.6
2018-Jun-18 07:00N 30°08' W 093°20'3 5.7
2018-Jun-18 06:30N 30°05' W 093°20'2 4.4
2018-Jun-18 06:00N 30°04' W 093°22'2 3.8
2018-Jun-18 05:30N 30°04' W 093°24'2 4.3
2018-Jun-18 05:00N 30°04' W 093°27'3 5.3
2018-Jun-18 04:30N 30°04' W 093°30'3 5.4
2018-Jun-18 04:00N 30°04' W 093°33'3 5.4
2018-Jun-18 03:30N 30°04' W 093°36'3 6.0
2018-Jun-18 03:00N 30°04' W 093°40'3 6.2
2018-Jun-18 02:31N 30°03' W 093°43'3 6.3
2018-Jun-18 02:00N 30°01' W 093°46'3 6.8
2018-Jun-18 01:30N 29°59' W 093°49'3 6.3
2018-Jun-18 01:00N 29°57' W 093°52'3 7.0
2018-Jun-18 00:30N 29°54' W 093°54'3 6.9
2018-Jun-18 00:00N 29°51' W 093°56'3 6.2
2018-Jun-17 23:30N 29°49' W 093°59'2 4.3
2018-Jun-17 23:01N 29°48' W 094°01'3 5.2
2018-Jun-17 22:31N 29°46' W 094°03'2 5.0
2018-Jun-17 22:00N 29°44' W 094°05'3 5.0
2018-Jun-17 21:30N 29°43' W 094°07'3 5.1
2018-Jun-17 21:00N 29°41' W 094°10'3 4.9
2018-Jun-17 20:30N 29°41' W 094°13'2 4.9
2018-Jun-17 20:01N 29°39' W 094°15'2 5.0
2018-Jun-17 19:31N 29°38' W 094°18'2 4.9
2018-Jun-17 19:00N 29°37' W 094°20'2 4.9
2018-Jun-17 18:30N 29°36' W 094°22'0 0.5
2018-Jun-17 18:00N 29°36' W 094°23'0 0.0
2018-Jun-17 17:30N 29°36' W 094°23'0 0.0
2018-Jun-17 17:00N 29°36' W 094°23'0 0.0
2018-Jun-17 16:30N 29°36' W 094°23'0 0.0
2018-Jun-17 16:00N 29°36' W 094°23'0 0.0
2018-Jun-17 15:30N 29°36' W 094°23'0 0.0
2018-Jun-17 15:01N 29°36' W 094°23'0 0.0
2018-Jun-17 14:30N 29°36' W 094°23'0 0.0
2018-Jun-17 14:00N 29°36' W 094°23'0 0.0
2018-Jun-17 13:30N 29°36' W 094°23'0 0.0
2018-Jun-17 13:01N 29°36' W 094°23'0 0.0
2018-Jun-17 12:30N 29°36' W 094°23'0 0.0
2018-Jun-17 12:01N 29°36' W 094°23'0 0.0
2018-Jun-17 11:28N 29°36' W 094°23'0 0.0
2018-Jun-17 10:59N 29°36' W 094°23'0 0.0
2018-Jun-17 10:30N 29°36' W 094°23'0 0.0
2018-Jun-17 10:00N 29°36' W 094°23'0 0.0
2018-Jun-17 09:30N 29°36' W 094°23'0 0.0
2018-Jun-17 09:00N 29°36' W 094°23'0 0.0
2018-Jun-17 08:30N 29°36' W 094°23'0 0.0
2018-Jun-17 08:00N 29°36' W 094°23'0 0.0
2018-Jun-17 07:30N 29°36' W 094°23'0 0.0
2018-Jun-17 07:00N 29°36' W 094°23'0 0.0
2018-Jun-17 06:29N 29°36' W 094°23'0 0.0
2018-Jun-17 05:59N 29°36' W 094°23'0 0.0
2018-Jun-17 05:31N 29°36' W 094°23'0 0.0
2018-Jun-17 05:01N 29°36' W 094°23'0 0.0
2018-Jun-17 04:30N 29°36' W 094°23'0 0.0
2018-Jun-17 04:00N 29°36' W 094°23'0 0.0
2018-Jun-17 03:31N 29°36' W 094°23'0 0.0
2018-Jun-17 03:00N 29°36' W 094°23'0 0.0
2018-Jun-17 02:31N 29°36' W 094°23'0 0.0
2018-Jun-17 02:00N 29°36' W 094°23'0 0.0
2018-Jun-17 01:30N 29°36' W 094°23'0 0.0
2018-Jun-17 00:59N 29°36' W 094°23'0 0.0
2018-Jun-17 00:30N 29°36' W 094°23'0 0.0
2018-Jun-17 00:00N 29°36' W 094°23'0 1.0
2018-Jun-16 23:30N 29°36' W 094°23'2 3.6
2018-Jun-16 23:00N 29°35' W 094°25'1 2.4
2018-Jun-16 22:30N 29°34' W 094°26'2 4.6
2018-Jun-16 22:00N 29°33' W 094°28'3 5.3
2018-Jun-16 21:30N 29°31' W 094°31'3 5.7
2018-Jun-16 20:56N 29°30' W 094°34'8 5.6
2018-Jun-16 19:33N 29°26' W 094°42'1 5.8
2018-Jun-16 19:26N 29°26' W 094°43'2 4.0
2018-Jun-16 19:00N 29°25' W 094°44'3 5.8
2018-Jun-16 18:30N 29°23' W 094°47'2 4.2
2018-Jun-16 18:00N 29°23' W 094°49'3 5.8
2018-Jun-16 17:30N 29°26' W 094°50'4 6.2
2018-Jun-16 16:51N 29°30' W 094°52'3 6.1
2018-Jun-16 16:20N 29°32' W 094°54'3 6.0
2018-Jun-16 15:52N 29°35' W 094°56'2 6.3
2018-Jun-16 15:30N 29°37' W 094°57'3 6.2
2018-Jun-16 14:58N 29°40' W 094°59'3 5.4
2018-Jun-16 14:27N 29°42' W 095°00'2 0.1
2018-Jun-15 03:11N 29°42' W 095°03'0 0.0
2018-Jun-15 02:43N 29°42' W 095°03'0 0.0
2018-Jun-15 02:17N 29°42' W 095°03'0 0.0
2018-Jun-15 01:53N 29°42' W 095°03'0 0.0
2018-Jun-15 01:19N 29°42' W 095°03'0 0.0
2018-Jun-14 13:58N 29°42' W 095°03'0 0.0
2018-Jun-14 13:14N 29°42' W 095°03'0 0.0
2018-Jun-14 12:58N 29°42' W 095°03'0 0.0
2018-Jun-14 12:05N 29°42' W 095°03'0 0.0
2018-Jun-14 12:00N 29°42' W 095°03'0 0.0
2018-Jun-14 11:13N 29°42' W 095°03'0 0.0
2018-Jun-14 10:48N 29°42' W 095°03'0 0.0
2018-Jun-14 09:32N 29°42' W 095°03'0 0.0
2018-Jun-14 09:23N 29°42' W 095°03'0 0.0
2018-Jun-14 08:58N 29°42' W 095°03'0 0.0
2018-Jun-14 08:25N 29°42' W 095°03'0 0.0
2018-Jun-14 07:54N 29°42' W 095°03'0 0.0
2018-Jun-14 07:27N 29°42' W 095°03'0 0.0
2018-Jun-14 06:59N 29°42' W 095°03'0 0.0
2018-Jun-14 06:30N 29°42' W 095°03'0 0.0
2018-Jun-14 06:00N 29°42' W 095°03'0 0.0
2018-Jun-14 05:28N 29°42' W 095°03'0 0.0
2018-Jun-14 04:40N 29°42' W 095°03'0 0.0
2018-Jun-14 04:24N 29°42' W 095°03'0 0.0
2018-Jun-14 04:01N 29°42' W 095°03'0 0.0
2018-Jun-14 03:27N 29°42' W 095°03'0 0.0
2018-Jun-14 02:58N 29°42' W 095°03'0 0.0
2018-Jun-14 02:30N 29°42' W 095°03'0 0.0
2018-Jun-14 01:58N 29°42' W 095°03'0 0.0
2018-Jun-14 01:30N 29°42' W 095°03'0 0.0
2018-Jun-14 01:00N 29°42' W 095°03'0 0.0
2018-Jun-13 10:11N 29°43' W 095°03'1 3.0
2018-Jun-13 09:41N 29°42' W 095°01'2 6.3
2018-Jun-13 09:26N 29°42' W 094°59'3 6.5
2018-Jun-13 09:00N 29°39' W 094°58'2 4.3
2018-Jun-13 08:30N 29°37' W 094°58'3 5.1
2018-Jun-13 07:59N 29°37' W 095°01'0 0.1
2018-Jun-13 07:30N 29°37' W 095°01'0 0.0
2018-Jun-13 07:00N 29°37' W 095°01'0 0.3
2018-Jun-13 06:30N 29°37' W 095°01'0 0.0
2018-Jun-13 06:00N 29°37' W 095°01'0 0.0
2018-Jun-13 05:29N 29°37' W 095°01'0 0.0
2018-Jun-13 04:59N 29°37' W 095°01'0 0.0
2018-Jun-13 04:30N 29°37' W 095°01'0 0.0
2018-Jun-13 04:00N 29°37' W 095°01'0 0.0
2018-Jun-13 03:28N 29°37' W 095°01'0 0.0
2018-Jun-13 03:00N 29°37' W 095°01'0 0.2
2018-Jun-13 02:30N 29°37' W 095°01'0 0.1
2018-Jun-13 02:00N 29°37' W 095°01'0 0.0
2018-Jun-13 01:30N 29°37' W 095°01'0 0.0
2018-Jun-13 01:00N 29°37' W 095°01'0 0.0
2018-Jun-13 00:30N 29°37' W 095°01'0 0.0
2018-Jun-13 00:00N 29°37' W 095°01'0 0.0
2018-Jun-12 23:30N 29°37' W 095°01'0 0.0
2018-Jun-12 23:00N 29°37' W 095°01'0 0.1
2018-Jun-12 22:30N 29°37' W 095°01'0 0.1
2018-Jun-12 22:00N 29°37' W 095°01'0 0.0
2018-Jun-12 21:30N 29°37' W 095°01'0 0.0
2018-Jun-12 21:00N 29°37' W 095°01'0 0.0
2018-Jun-12 20:30N 29°37' W 095°01'0 0.0
2018-Jun-12 20:00N 29°37' W 095°01'0 0.0
2018-Jun-12 19:30N 29°37' W 095°01'0 0.0
2018-Jun-12 19:00N 29°37' W 095°01'0 0.0
2018-Jun-12 18:30N 29°37' W 095°01'0 0.0
2018-Jun-12 18:00N 29°37' W 095°01'0 0.3
2018-Jun-12 17:30N 29°37' W 095°01'0 0.2
2018-Jun-12 16:56N 29°37' W 095°01'0 0.3
2018-Jun-12 16:30N 29°37' W 095°01'0 0.2
2018-Jun-12 16:00N 29°37' W 095°01'0 0.0
2018-Jun-12 15:30N 29°37' W 095°01'0 0.2
2018-Jun-12 15:00N 29°37' W 095°01'0 0.0
2018-Jun-12 14:28N 29°37' W 095°01'0 0.0
2018-Jun-12 14:00N 29°37' W 095°01'0 0.0
2018-Jun-12 13:30N 29°37' W 095°01'0 0.0
2018-Jun-12 13:00N 29°37' W 095°01'0 0.0
2018-Jun-12 12:30N 29°37' W 095°01'0 0.0
2018-Jun-12 12:00N 29°37' W 095°01'0 0.0
2018-Jun-12 11:30N 29°37' W 095°01'0 0.0
2018-Jun-12 11:00N 29°37' W 095°01'0 0.0
2018-Jun-12 10:30N 29°37' W 095°01'0 0.1
2018-Jun-12 10:00N 29°37' W 095°01'0 0.1
2018-Jun-12 09:30N 29°37' W 095°01'0 0.0
2018-Jun-12 09:00N 29°37' W 095°01'0 0.0
2018-Jun-12 08:29N 29°37' W 095°01'0 0.0
2018-Jun-12 08:00N 29°37' W 095°01'0 0.0
2018-Jun-12 07:30N 29°37' W 095°01'0 0.0
2018-Jun-12 07:00N 29°37' W 095°01'0 0.0
2018-Jun-12 06:30N 29°37' W 095°01'0 0.0
2018-Jun-12 06:00N 29°37' W 095°01'0 0.0
2018-Jun-12 05:30N 29°37' W 095°01'0 0.2
2018-Jun-12 05:01N 29°37' W 095°01'0 0.2
2018-Jun-12 04:29N 29°37' W 095°01'0 0.2
2018-Jun-12 04:00N 29°37' W 095°01'0 0.3
2018-Jun-12 03:30N 29°37' W 095°01'0 0.2
2018-Jun-12 03:00N 29°37' W 095°01'0 0.4
2018-Jun-12 02:30N 29°37' W 095°01'0 0.0
2018-Jun-12 02:00N 29°37' W 095°01'0 0.0
2018-Jun-12 01:30N 29°37' W 095°01'0 0.1
2018-Jun-12 01:00N 29°37' W 095°01'3 6.1
2018-Jun-12 00:29N 29°37' W 094°58'3 6.8
2018-Jun-12 00:00N 29°40' W 094°59'9 0.5
2018-Jun-11 03:48N 29°47' W 095°06'0 0.0
2018-Jun-11 03:30N 29°47' W 095°06'0 0.0
2018-Jun-11 02:53N 29°47' W 095°06'0 0.0
2018-Jun-11 02:26N 29°47' W 095°06'0 0.0
2018-Jun-11 01:58N 29°47' W 095°06'0 0.0
2018-Jun-11 01:27N 29°47' W 095°06'0 0.0
2018-Jun-09 08:41N 29°47' W 095°06'0 0.0
2018-Jun-09 08:25N 29°47' W 095°06'0 0.0
2018-Jun-09 07:59N 29°47' W 095°06'0 0.0
2018-Jun-09 07:29N 29°47' W 095°06'0 0.0
2018-Jun-09 06:50N 29°47' W 095°06'0 0.0
2018-Jun-09 06:28N 29°47' W 095°06'0 0.0
2018-Jun-09 06:00N 29°47' W 095°06'0 0.0
2018-Jun-09 05:05N 29°47' W 095°06'0 0.0
2018-Jun-09 04:55N 29°47' W 095°06'0 0.0
2018-Jun-09 04:26N 29°47' W 095°06'0 0.0
2018-Jun-09 03:57N 29°47' W 095°06'0 0.0
2018-Jun-09 03:30N 29°47' W 095°06'0 0.0
2018-Jun-09 02:59N 29°47' W 095°06'0 0.0
2018-Jun-09 02:25N 29°47' W 095°06'0 0.0
2018-Jun-09 02:00N 29°47' W 095°06'0 0.0
2018-Jun-09 01:30N 29°47' W 095°06'0 0.0
2018-Jun-09 00:57N 29°47' W 095°06'  
Track history (hours):
 
Tides and Currents Weather Stations Pressure Air Temp Water Temp Dewpoint Dewpoint Depression Visibility Wind Speed Wind Dir Waves Ship Positions

Duke

Owner: Harley Marine Services, Inc, Seattle, WA. More information available from US FCC via Universal Licensing System and Coast Guard Vessel Documentation Center.

Last reported at 2018-Jun-18 22:30 UTC. Time now 2018-Jun-18 22:39 UTC.
Position N 30°08' W 093°19'.

Length 26 m; draft 2.6 m.

Type: Ship (hazmat cat A). MMSI: 367586750.

Date/timePositionNaut miles runAvg speedWind from/ knotsBaromVisibWave heightAir tempDewpointWater temp
2018-Jun-18 22:30N 30°08' W 093°19'0 0.0
2018-Jun-18 22:00N 30°08' W 093°19'0 0.0
2018-Jun-18 21:30N 30°08' W 093°19'0 0.0
2018-Jun-18 21:00N 30°08' W 093°19'0 0.0
2018-Jun-18 20:29N 30°08' W 093°19'0 0.0
2018-Jun-18 19:59N 30°08' W 093°19'0 0.0
2018-Jun-18 19:30N 30°08' W 093°19'0 0.0
2018-Jun-18 19:00N 30°08' W 093°19'0 0.0
2018-Jun-18 18:30N 30°08' W 093°19'0 0.0
2018-Jun-18 18:00N 30°08' W 093°19'0 0.0
2018-Jun-18 17:30N 30°08' W 093°19'0 0.0
2018-Jun-18 17:00N 30°08' W 093°19'0 0.0
2018-Jun-18 16:29N 30°08' W 093°19'0 0.0
2018-Jun-18 16:00N 30°08' W 093°19'0 0.0
2018-Jun-18 15:29N 30°08' W 093°19'0 0.0
2018-Jun-18 15:00N 30°08' W 093°19'0 0.0
2018-Jun-18 14:30N 30°08' W 093°19'0 0.0
2018-Jun-18 14:00N 30°08' W 093°19'0 0.0
2018-Jun-18 13:30N 30°08' W 093°19'0 0.0
2018-Jun-18 13:00N 30°08' W 093°19'0 0.0
2018-Jun-18 12:30N 30°08' W 093°19'0 0.0
2018-Jun-18 12:00N 30°08' W 093°19'0 0.0
2018-Jun-18 11:30N 30°08' W 093°19'0 0.0
2018-Jun-18 11:00N 30°08' W 093°19'0 0.0
2018-Jun-18 10:29N 30°08' W 093°19'0 0.0
2018-Jun-18 10:00N 30°08' W 093°19'0 0.0
2018-Jun-18 09:29N 30°08' W 093°19'0 0.0
2018-Jun-18 08:57N 30°08' W 093°19'0 0.0
2018-Jun-18 08:29N 30°08' W 093°19'0 0.0
2018-Jun-18 08:00N 30°08' W 093°19'0 0.0
2018-Jun-18 07:30N 30°08' W 093°19'1 1.6
2018-Jun-18 07:00N 30°08' W 093°20'3 5.7
2018-Jun-18 06:30N 30°05' W 093°20'2 4.4
2018-Jun-18 06:00N 30°04' W 093°22'2 3.8
2018-Jun-18 05:30N 30°04' W 093°24'2 4.3
2018-Jun-18 05:00N 30°04' W 093°27'3 5.3
2018-Jun-18 04:30N 30°04' W 093°30'3 5.4
2018-Jun-18 04:00N 30°04' W 093°33'3 5.4
2018-Jun-18 03:30N 30°04' W 093°36'3 6.0
2018-Jun-18 03:00N 30°04' W 093°40'3 6.2
2018-Jun-18 02:31N 30°03' W 093°43'3 6.3
2018-Jun-18 02:00N 30°01' W 093°46'3 6.8
2018-Jun-18 01:30N 29°59' W 093°49'3 6.3
2018-Jun-18 01:00N 29°57' W 093°52'3 7.0
2018-Jun-18 00:30N 29°54' W 093°54'3 6.9
2018-Jun-18 00:00N 29°51' W 093°56'3 6.2
2018-Jun-17 23:30N 29°49' W 093°59'2 4.3
2018-Jun-17 23:01N 29°48' W 094°01'3 5.2
2018-Jun-17 22:31N 29°46' W 094°03'2 5.0
2018-Jun-17 22:00N 29°44' W 094°05'3 5.0
2018-Jun-17 21:30N 29°43' W 094°07'3 5.1
2018-Jun-17 21:00N 29°41' W 094°10'3 4.9
2018-Jun-17 20:30N 29°41' W 094°13'2 4.9
2018-Jun-17 20:01N 29°39' W 094°15'2 5.0
2018-Jun-17 19:31N 29°38' W 094°18'2 4.9
2018-Jun-17 19:00N 29°37' W 094°20'2 4.9
2018-Jun-17 18:30N 29°36' W 094°22'0 0.5
2018-Jun-17 18:00N 29°36' W 094°23'0 0.0
2018-Jun-17 17:30N 29°36' W 094°23'0 0.0
2018-Jun-17 17:00N 29°36' W 094°23'0 0.0
2018-Jun-17 16:30N 29°36' W 094°23'0 0.0
2018-Jun-17 16:00N 29°36' W 094°23'0 0.0
2018-Jun-17 15:30N 29°36' W 094°23'0 0.0
2018-Jun-17 15:01N 29°36' W 094°23'0 0.0
2018-Jun-17 14:30N 29°36' W 094°23'0 0.0
2018-Jun-17 14:00N 29°36' W 094°23'0 0.0
2018-Jun-17 13:30N 29°36' W 094°23'0 0.0
2018-Jun-17 13:01N 29°36' W 094°23'0 0.0
2018-Jun-17 12:30N 29°36' W 094°23'0 0.0
2018-Jun-17 12:01N 29°36' W 094°23'0 0.0
2018-Jun-17 11:28N 29°36' W 094°23'0 0.0
2018-Jun-17 10:59N 29°36' W 094°23'0 0.0
2018-Jun-17 10:30N 29°36' W 094°23'0 0.0
2018-Jun-17 10:00N 29°36' W 094°23'0 0.0
2018-Jun-17 09:30N 29°36' W 094°23'0 0.0
2018-Jun-17 09:00N 29°36' W 094°23'0 0.0
2018-Jun-17 08:30N 29°36' W 094°23'0 0.0
2018-Jun-17 08:00N 29°36' W 094°23'0 0.0
2018-Jun-17 07:30N 29°36' W 094°23'0 0.0
2018-Jun-17 07:00N 29°36' W 094°23'0 0.0
2018-Jun-17 06:29N 29°36' W 094°23'0 0.0
2018-Jun-17 05:59N 29°36' W 094°23'0 0.0
2018-Jun-17 05:31N 29°36' W 094°23'0 0.0
2018-Jun-17 05:01N 29°36' W 094°23'0 0.0
2018-Jun-17 04:30N 29°36' W 094°23'0 0.0
2018-Jun-17 04:00N 29°36' W 094°23'0 0.0
2018-Jun-17 03:31N 29°36' W 094°23'0 0.0
2018-Jun-17 03:00N 29°36' W 094°23'0 0.0
2018-Jun-17 02:31N 29°36' W 094°23'0 0.0
2018-Jun-17 02:00N 29°36' W 094°23'0 0.0
2018-Jun-17 01:30N 29°36' W 094°23'0 0.0
2018-Jun-17 00:59N 29°36' W 094°23'0 0.0
2018-Jun-17 00:30N 29°36' W 094°23'0 0.0
2018-Jun-17 00:00N 29°36' W 094°23'0 1.0
2018-Jun-16 23:30N 29°36' W 094°23'2 3.6
2018-Jun-16 23:00N 29°35' W 094°25'1 2.4
2018-Jun-16 22:30N 29°34' W 094°26'2 4.6
2018-Jun-16 22:00N 29°33' W 094°28'3 5.3
2018-Jun-16 21:30N 29°31' W 094°31'3 5.7
2018-Jun-16 20:56N 29°30' W 094°34'8 5.6
2018-Jun-16 19:33N 29°26' W 094°42'1 5.8
2018-Jun-16 19:26N 29°26' W 094°43'2 4.0
2018-Jun-16 19:00N 29°25' W 094°44'3 5.8
2018-Jun-16 18:30N 29°23' W 094°47'2 4.2
2018-Jun-16 18:00N 29°23' W 094°49'3 5.8
2018-Jun-16 17:30N 29°26' W 094°50'4 6.2
2018-Jun-16 16:51N 29°30' W 094°52'3 6.1
2018-Jun-16 16:20N 29°32' W 094°54'3 6.0
2018-Jun-16 15:52N 29°35' W 094°56'2 6.3
2018-Jun-16 15:30N 29°37' W 094°57'3 6.2
2018-Jun-16 14:58N 29°40' W 094°59'3 5.4
2018-Jun-16 14:27N 29°42' W 095°00'2 0.1
2018-Jun-15 03:11N 29°42' W 095°03'0 0.0
2018-Jun-15 02:43N 29°42' W 095°03'0 0.0
2018-Jun-15 02:17N 29°42' W 095°03'0 0.0
2018-Jun-15 01:53N 29°42' W 095°03'0 0.0
2018-Jun-15 01:19N 29°42' W 095°03'0 0.0
2018-Jun-14 13:58N 29°42' W 095°03'0 0.0
2018-Jun-14 13:14N 29°42' W 095°03'0 0.0
2018-Jun-14 12:58N 29°42' W 095°03'0 0.0
2018-Jun-14 12:05N 29°42' W 095°03'0 0.0
2018-Jun-14 12:00N 29°42' W 095°03'0 0.0
2018-Jun-14 11:13N 29°42' W 095°03'0 0.0
2018-Jun-14 10:48N 29°42' W 095°03'0 0.0
2018-Jun-14 09:32N 29°42' W 095°03'0 0.0
2018-Jun-14 09:23N 29°42' W 095°03'0 0.0
2018-Jun-14 08:58N 29°42' W 095°03'0 0.0
2018-Jun-14 08:25N 29°42' W 095°03'0 0.0
2018-Jun-14 07:54N 29°42' W 095°03'0 0.0
2018-Jun-14 07:27N 29°42' W 095°03'0 0.0
2018-Jun-14 06:59N 29°42' W 095°03'0 0.0
2018-Jun-14 06:30N 29°42' W 095°03'0 0.0
2018-Jun-14 06:00N 29°42' W 095°03'0 0.0
2018-Jun-14 05:28N 29°42' W 095°03'0 0.0
2018-Jun-14 04:40N 29°42' W 095°03'0 0.0
2018-Jun-14 04:24N 29°42' W 095°03'0 0.0
2018-Jun-14 04:01N 29°42' W 095°03'0 0.0
2018-Jun-14 03:27N 29°42' W 095°03'0 0.0
2018-Jun-14 02:58N 29°42' W 095°03'0 0.0
2018-Jun-14 02:30N 29°42' W 095°03'0 0.0
2018-Jun-14 01:58N 29°42' W 095°03'0 0.0
2018-Jun-14 01:30N 29°42' W 095°03'0 0.0
2018-Jun-14 01:00N 29°42' W 095°03'0 0.0
2018-Jun-13 10:11N 29°43' W 095°03'1 3.0
2018-Jun-13 09:41N 29°42' W 095°01'2 6.3
2018-Jun-13 09:26N 29°42' W 094°59'3 6.5
2018-Jun-13 09:00N 29°39' W 094°58'2 4.3
2018-Jun-13 08:30N 29°37' W 094°58'3 5.1
2018-Jun-13 07:59N 29°37' W 095°01'0 0.1
2018-Jun-13 07:30N 29°37' W 095°01'0 0.0
2018-Jun-13 07:00N 29°37' W 095°01'0 0.3
2018-Jun-13 06:30N 29°37' W 095°01'0 0.0
2018-Jun-13 06:00N 29°37' W 095°01'0 0.0
2018-Jun-13 05:29N 29°37' W 095°01'0 0.0
2018-Jun-13 04:59N 29°37' W 095°01'0 0.0
2018-Jun-13 04:30N 29°37' W 095°01'0 0.0
2018-Jun-13 04:00N 29°37' W 095°01'0 0.0
2018-Jun-13 03:28N 29°37' W 095°01'0 0.0
2018-Jun-13 03:00N 29°37' W 095°01'0 0.2
2018-Jun-13 02:30N 29°37' W 095°01'0 0.1
2018-Jun-13 02:00N 29°37' W 095°01'0 0.0
2018-Jun-13 01:30N 29°37' W 095°01'0 0.0
2018-Jun-13 01:00N 29°37' W 095°01'0 0.0
2018-Jun-13 00:30N 29°37' W 095°01'0 0.0
2018-Jun-13 00:00N 29°37' W 095°01'0 0.0
2018-Jun-12 23:30N 29°37' W 095°01'0 0.0
2018-Jun-12 23:00N 29°37' W 095°01'0 0.1
2018-Jun-12 22:30N 29°37' W 095°01'0 0.1
2018-Jun-12 22:00N 29°37' W 095°01'0 0.0
2018-Jun-12 21:30N 29°37' W 095°01'0 0.0
2018-Jun-12 21:00N 29°37' W 095°01'0 0.0
2018-Jun-12 20:30N 29°37' W 095°01'0 0.0
2018-Jun-12 20:00N 29°37' W 095°01'0 0.0
2018-Jun-12 19:30N 29°37' W 095°01'0 0.0
2018-Jun-12 19:00N 29°37' W 095°01'0 0.0
2018-Jun-12 18:30N 29°37' W 095°01'0 0.0
2018-Jun-12 18:00N 29°37' W 095°01'0 0.3
2018-Jun-12 17:30N 29°37' W 095°01'0 0.2
2018-Jun-12 16:56N 29°37' W 095°01'0 0.3
2018-Jun-12 16:30N 29°37' W 095°01'0 0.2
2018-Jun-12 16:00N 29°37' W 095°01'0 0.0
2018-Jun-12 15:30N 29°37' W 095°01'0 0.2
2018-Jun-12 15:00N 29°37' W 095°01'0 0.0
2018-Jun-12 14:28N 29°37' W 095°01'0 0.0
2018-Jun-12 14:00N 29°37' W 095°01'0 0.0
2018-Jun-12 13:30N 29°37' W 095°01'0 0.0
2018-Jun-12 13:00N 29°37' W 095°01'0 0.0
2018-Jun-12 12:30N 29°37' W 095°01'0 0.0
2018-Jun-12 12:00N 29°37' W 095°01'0 0.0
2018-Jun-12 11:30N 29°37' W 095°01'0 0.0
2018-Jun-12 11:00N 29°37' W 095°01'0 0.0
2018-Jun-12 10:30N 29°37' W 095°01'0 0.1
2018-Jun-12 10:00N 29°37' W 095°01'0 0.1
2018-Jun-12 09:30N 29°37' W 095°01'0 0.0
2018-Jun-12 09:00N 29°37' W 095°01'0 0.0
2018-Jun-12 08:29N 29°37' W 095°01'0 0.0
2018-Jun-12 08:00N 29°37' W 095°01'0 0.0
2018-Jun-12 07:30N 29°37' W 095°01'0 0.0
2018-Jun-12 07:00N 29°37' W 095°01'0 0.0
2018-Jun-12 06:30N 29°37' W 095°01'0 0.0
2018-Jun-12 06:00N 29°37' W 095°01'0 0.0
2018-Jun-12 05:30N 29°37' W 095°01'0 0.2
2018-Jun-12 05:01N 29°37' W 095°01'0 0.2
2018-Jun-12 04:29N 29°37' W 095°01'0 0.2
2018-Jun-12 04:00N 29°37' W 095°01'0 0.3
2018-Jun-12 03:30N 29°37' W 095°01'0 0.2
2018-Jun-12 03:00N 29°37' W 095°01'0 0.4
2018-Jun-12 02:30N 29°37' W 095°01'0 0.0
2018-Jun-12 02:00N 29°37' W 095°01'0 0.0
2018-Jun-12 01:30N 29°37' W 095°01'0 0.1
2018-Jun-12 01:00N 29°37' W 095°01'3 6.1
2018-Jun-12 00:29N 29°37' W 094°58'3 6.8
2018-Jun-12 00:00N 29°40' W 094°59'9 0.5
2018-Jun-11 03:48N 29°47' W 095°06'0 0.0
2018-Jun-11 03:30N 29°47' W 095°06'0 0.0
2018-Jun-11 02:53N 29°47' W 095°06'0 0.0
2018-Jun-11 02:26N 29°47' W 095°06'0 0.0
2018-Jun-11 01:58N 29°47' W 095°06'0 0.0
2018-Jun-11 01:27N 29°47' W 095°06'0 0.0
2018-Jun-09 08:41N 29°47' W 095°06'0 0.0
2018-Jun-09 08:25N 29°47' W 095°06'0 0.0
2018-Jun-09 07:59N 29°47' W 095°06'0 0.0
2018-Jun-09 07:29N 29°47' W 095°06'0 0.0
2018-Jun-09 06:50N 29°47' W 095°06'0 0.0
2018-Jun-09 06:28N 29°47' W 095°06'0 0.0
2018-Jun-09 06:00N 29°47' W 095°06'0 0.0
2018-Jun-09 05:05N 29°47' W 095°06'0 0.0
2018-Jun-09 04:55N 29°47' W 095°06'0 0.0
2018-Jun-09 04:26N 29°47' W 095°06'0 0.0
2018-Jun-09 03:57N 29°47' W 095°06'0 0.0
2018-Jun-09 03:30N 29°47' W 095°06'0 0.0
2018-Jun-09 02:59N 29°47' W 095°06'0 0.0
2018-Jun-09 02:25N 29°47' W 095°06'0 0.0
2018-Jun-09 02:00N 29°47' W 095°06'0 0.0
2018-Jun-09 01:30N 29°47' W 095°06'0 0.0
2018-Jun-09 00:57N 29°47' W 095°06'  

Dump ship's entire track history